createdAt,value
2019-02-02T00:02:26.910Z,78.60
2019-02-02T00:05:09.487Z,78.40
2019-02-02T00:07:51.262Z,78.70
2019-02-02T00:10:33.965Z,78.30
2019-02-02T00:13:16.257Z,78.00
2019-02-02T00:15:59.112Z,78.00
2019-02-02T00:18:40.598Z,78.10
2019-02-02T00:21:29.250Z,78.20
2019-02-02T00:24:10.740Z,78.30
2019-02-02T00:26:53.200Z,78.40
2019-02-02T00:29:36.842Z,78.40
2019-02-02T00:32:22.597Z,78.50
2019-02-02T00:35:04.879Z,78.50
2019-02-02T00:37:50.240Z,78.60
2019-02-02T00:40:31.471Z,78.70
2019-02-02T00:43:14.186Z,78.80
2019-02-02T00:45:59.536Z,78.90
2019-02-02T00:48:29.615Z,79.00
2019-02-02T00:51:20.511Z,79.00
2019-02-02T00:56:51.056Z,78.90
2019-02-02T00:59:37.003Z,79.00
2019-02-02T01:02:18.843Z,79.00
2019-02-02T01:05:01.872Z,79.10
2019-02-02T01:07:43.986Z,79.00
2019-02-02T01:13:11.425Z,79.30
2019-02-02T01:15:55.520Z,79.20
2019-02-02T01:21:23.345Z,80.20
2019-02-02T01:24:05.303Z,79.50
2019-02-02T01:26:36.089Z,79.50
2019-02-02T01:29:25.210Z,79.40
2019-02-02T01:34:52.229Z,79.30
2019-02-02T01:37:35.501Z,79.10
2019-02-02T01:40:20.262Z,79.00
2019-02-02T01:43:05.911Z,78.80
2019-02-02T01:45:47.164Z,78.80
2019-02-02T01:48:29.990Z,78.90
2019-02-02T01:51:11.495Z,79.00
2019-02-02T01:53:53.954Z,79.10
2019-02-02T01:56:36.301Z,79.10
2019-02-02T01:59:22.106Z,79.00
2019-02-02T02:02:06.770Z,79.10
2019-02-02T02:04:54.249Z,79.20
2019-02-02T02:07:36.138Z,79.30
2019-02-02T02:10:21.850Z,79.30
2019-02-02T02:13:04.250Z,79.40
2019-02-02T02:15:50.942Z,79.30
2019-02-02T02:21:26.819Z,79.80
2019-02-02T02:24:11.950Z,79.00
2019-02-02T02:26:53.510Z,79.00
2019-02-02T02:29:36.730Z,78.80
2019-02-02T02:32:18.679Z,78.90
2019-02-02T02:35:00.818Z,78.90
2019-02-02T02:37:41.861Z,79.00
2019-02-02T02:40:24.482Z,79.10
2019-02-02T02:43:05.689Z,79.10
2019-02-02T02:45:48.682Z,79.50
2019-02-02T02:51:24.030Z,79.20
2019-02-02T02:54:09.710Z,78.40
2019-02-02T02:56:50.892Z,78.30
2019-02-02T02:59:33.865Z,77.50
2019-02-02T03:02:15.999Z,77.20
2019-02-02T03:04:59.039Z,77.20
2019-02-02T03:07:40.291Z,77.30
2019-02-02T03:10:22.917Z,77.70
2019-02-02T03:13:04.324Z,77.80
2019-02-02T03:15:46.749Z,77.90
2019-02-02T03:18:31.122Z,78.10
2019-02-02T03:21:13.778Z,79.00
2019-02-02T03:23:58.362Z,78.50
2019-02-02T03:26:43.814Z,78.60
2019-02-02T03:29:25.112Z,78.70
2019-02-02T03:32:07.928Z,78.70
2019-02-02T03:34:49.346Z,78.80
2019-02-02T03:37:31.986Z,78.90
2019-02-02T03:42:54.767Z,78.40
2019-02-02T03:45:40.346Z,78.90
2019-02-02T03:48:20.614Z,79.10
2019-02-02T03:51:03.178Z,79.10
2019-02-02T03:53:45.889Z,79.20
2019-02-02T03:56:27.297Z,79.10
2019-02-02T03:59:09.950Z,79.10
2019-02-02T04:01:51.038Z,79.30
2019-02-02T04:04:34.154Z,79.50
2019-02-02T04:07:21.582Z,79.30
2019-02-02T04:10:05.066Z,79.30
2019-02-02T04:18:19.868Z,79.20
2019-02-02T04:21:06.037Z,79.10
2019-02-02T04:23:47.898Z,79.10
2019-02-02T04:26:31.051Z,79.20
2019-02-02T04:29:17.878Z,79.10
2019-02-02T04:31:57.921Z,79.00
2019-02-02T04:34:39.602Z,79.00
2019-02-02T04:43:18.518Z,79.00
2019-02-02T04:45:59.927Z,79.00
2019-02-02T04:48:43.982Z,79.00
2019-02-02T04:51:25.448Z,79.00
2019-02-02T04:54:10.818Z,79.10
2019-02-02T04:59:47.154Z,79.20
2019-02-02T05:02:30.478Z,79.30
2019-02-02T05:05:16.145Z,79.40
2019-02-02T05:07:59.202Z,79.40
2019-02-02T05:10:41.159Z,79.30
2019-02-02T05:13:23.595Z,79.10
2019-02-02T05:16:08.231Z,79.10
2019-02-02T05:18:52.386Z,79.30
2019-02-02T05:21:34.448Z,79.40
2019-02-02T05:24:17.664Z,79.60
2019-02-02T05:27:00.078Z,79.50
2019-02-02T05:29:43.060Z,79.40
2019-02-02T05:32:24.775Z,79.30
2019-02-02T05:35:10.186Z,79.20
2019-02-02T05:40:45.591Z,79.20
2019-02-02T05:43:31.215Z,79.00
2019-02-02T05:46:12.735Z,78.80
2019-02-02T05:48:55.784Z,78.80
2019-02-02T05:51:40.689Z,78.80
2019-02-02T05:54:26.738Z,78.80
2019-02-02T05:57:11.485Z,78.80
2019-02-02T05:59:55.917Z,78.80
2019-02-02T06:02:38.595Z,78.90
2019-02-02T06:05:21.931Z,79.00
2019-02-02T06:08:04.437Z,79.20
2019-02-02T06:10:48.761Z,79.20
2019-02-02T06:13:34.865Z,79.10
2019-02-02T06:16:17.356Z,79.20
2019-02-02T06:18:59.165Z,79.20
2019-02-02T06:21:42.949Z,79.10
2019-02-02T06:24:27.436Z,79.30
2019-02-02T06:27:10.978Z,79.20
2019-02-02T06:35:44.612Z,79.30
2019-02-02T06:38:36.161Z,79.30
2019-02-02T06:41:24.175Z,79.30
2019-02-02T06:44:06.509Z,79.20
2019-02-02T06:46:49.043Z,79.10
2019-02-02T06:52:39.112Z,79.20
2019-02-02T06:55:25.974Z,79.20
2019-02-02T06:58:13.258Z,79.20
2019-02-02T07:00:55.935Z,79.30
2019-02-02T07:03:26.901Z,79.30
2019-02-02T07:06:17.012Z,79.40
2019-02-02T07:08:59.352Z,79.30
2019-02-02T07:11:41.919Z,79.30
2019-02-02T07:14:23.573Z,79.30
2019-02-02T07:17:07.138Z,79.50
2019-02-02T07:19:49.184Z,79.40
2019-02-02T07:22:36.168Z,79.50
2019-02-02T07:25:20.301Z,79.60
2019-02-02T07:28:04.335Z,79.40
2019-02-02T07:30:41.531Z,79.40
2019-02-02T07:34:06.868Z,79.60
2019-02-02T07:39:32.089Z,79.80
2019-02-02T07:42:16.607Z,79.70
2019-02-02T07:44:59.268Z,79.60
2019-02-02T07:47:41.939Z,79.60
2019-02-02T07:50:26.786Z,79.40
2019-02-02T07:58:46.874Z,79.40
2019-02-02T08:01:29.843Z,79.30
2019-02-02T08:04:12.138Z,79.40
2019-02-02T08:06:56.226Z,79.40
2019-02-02T08:09:38.118Z,79.50
2019-02-02T08:12:20.993Z,79.50
2019-02-02T08:15:02.670Z,79.60
2019-02-02T08:17:46.789Z,79.60
2019-02-02T08:20:29.649Z,79.80
2019-02-02T08:23:01.525Z,79.80
2019-02-02T08:25:32.496Z,79.80
2019-02-02T08:28:03.334Z,79.70
2019-02-02T08:30:36.141Z,79.70
2019-02-02T08:33:07.801Z,79.80
2019-02-02T08:35:49.717Z,79.80
2019-02-02T08:38:20.633Z,79.80
2019-02-02T08:41:29.639Z,79.80
2019-02-02T08:44:00.149Z,79.80
2019-02-02T08:46:49.603Z,79.80
2019-02-02T08:49:31.512Z,80.00
2019-02-02T08:52:02.441Z,80.00
2019-02-02T08:54:52.141Z,79.90
2019-02-02T08:57:34.772Z,79.80
2019-02-02T09:00:26.407Z,79.90
2019-02-02T09:03:15.530Z,80.20
2019-02-02T09:05:57.426Z,80.20
2019-02-02T09:08:39.434Z,80.50
2019-02-02T09:11:20.886Z,80.00
2019-02-02T09:14:04.187Z,79.80
2019-02-02T09:16:45.787Z,79.90
2019-02-02T09:19:29.390Z,80.30
2019-02-02T09:22:12.122Z,80.40
2019-02-02T09:24:42.926Z,80.40
2019-02-02T09:30:18.068Z,80.50
2019-02-02T09:32:48.926Z,80.70
2019-02-02T09:35:38.471Z,80.70
2019-02-02T09:38:11.742Z,81.20
2019-02-02T09:41:00.686Z,80.50
2019-02-02T09:43:30.542Z,80.40
2019-02-02T09:46:00.186Z,80.30
2019-02-02T09:48:49.236Z,80.30
2019-02-02T09:54:39.094Z,80.20
2019-02-02T09:57:08.839Z,80.10
2019-02-02T09:59:38.409Z,80.00
2019-02-02T10:02:08.704Z,80.10
2019-02-02T10:04:38.283Z,79.70
2019-02-02T10:07:26.900Z,79.90
2019-02-02T10:09:56.759Z,79.40
2019-02-02T10:12:48.469Z,79.40
2019-02-02T10:18:04.115Z,79.60
2019-02-02T10:20:33.841Z,79.70
2019-02-02T10:23:16.259Z,79.70
2019-02-02T10:28:40.744Z,79.70
2019-02-02T10:31:10.576Z,79.70
2019-02-02T10:33:40.691Z,79.50
2019-02-02T10:36:10.429Z,79.80
2019-02-02T10:38:59.371Z,78.40
2019-02-02T10:41:48.787Z,77.90
2019-02-02T10:44:18.509Z,78.30
2019-02-02T10:46:48.473Z,77.80
2019-02-02T10:49:18.608Z,77.60
2019-02-02T10:51:48.300Z,77.90
2019-02-02T10:57:42.896Z,78.40
2019-02-02T11:00:24.286Z,78.10
2019-02-02T11:02:54.225Z,78.40
2019-02-02T11:05:43.165Z,78.80
2019-02-02T11:08:12.921Z,78.80
2019-02-02T11:10:42.838Z,78.70
2019-02-02T11:13:16.361Z,77.90
2019-02-02T11:15:45.615Z,77.60
2019-02-02T11:18:15.504Z,77.70
2019-02-02T11:20:45.699Z,78.30
2019-02-02T11:26:01.387Z,77.80
2019-02-02T11:28:32.414Z,78.00
2019-02-02T11:31:02.095Z,78.20
2019-02-02T11:33:51.363Z,78.20
2019-02-02T11:39:16.804Z,77.80
2019-02-02T11:42:01.001Z,77.40
2019-02-02T11:44:31.032Z,77.70
2019-02-02T11:47:21.172Z,77.90
2019-02-02T11:49:51.774Z,77.90
2019-02-02T11:52:23.358Z,77.90
2019-02-02T11:54:53.160Z,78.00
2019-02-02T11:57:23.722Z,77.80
2019-02-02T11:59:54.230Z,78.40
2019-02-02T12:02:49.442Z,77.50
2019-02-02T12:05:15.884Z,77.60
2019-02-02T12:08:04.725Z,77.50
2019-02-02T12:13:23.625Z,77.20
2019-02-02T12:15:53.605Z,77.40
2019-02-02T12:18:23.355Z,77.50
2019-02-02T12:20:55.035Z,77.70
2019-02-02T12:23:25.859Z,77.70
2019-02-02T12:25:55.623Z,77.70
2019-02-02T12:28:27.490Z,77.60
2019-02-02T12:30:57.925Z,77.50
2019-02-02T12:33:47.684Z,77.20
2019-02-02T12:36:17.716Z,77.10
2019-02-02T12:38:47.665Z,77.20
2019-02-02T12:41:37.088Z,77.30
2019-02-02T12:44:07.689Z,77.00
2019-02-02T12:46:37.906Z,77.30
2019-02-02T12:49:09.730Z,77.00
2019-02-02T12:51:59.854Z,76.60
2019-02-02T12:54:30.625Z,76.70
2019-02-02T12:57:00.708Z,77.50
2019-02-02T12:59:51.001Z,77.80
2019-02-02T13:02:21.546Z,77.70
2019-02-02T13:04:51.274Z,76.70
2019-02-02T13:07:22.175Z,77.40
2019-02-02T13:09:52.368Z,77.20
2019-02-02T13:12:22.325Z,77.00
2019-02-02T13:14:53.096Z,76.90
2019-02-02T13:17:42.493Z,77.20
2019-02-02T13:20:13.145Z,76.50
2019-02-02T13:22:43.940Z,76.60
2019-02-02T13:25:15.553Z,76.80
2019-02-02T13:27:47.287Z,76.20
2019-02-02T13:30:40.014Z,75.80
2019-02-02T13:33:10.759Z,75.40
2019-02-02T13:35:43.834Z,75.70
2019-02-02T13:38:14.936Z,75.30
2019-02-02T13:40:45.762Z,75.50
2019-02-02T13:46:17.684Z,75.30
2019-02-02T13:48:51.084Z,74.70
2019-02-02T13:51:21.549Z,74.30
2019-02-02T13:53:52.309Z,74.80
2019-02-02T13:56:22.917Z,75.50
2019-02-02T13:58:53.631Z,75.40
2019-02-02T14:01:43.407Z,75.80
2019-02-02T14:04:14.592Z,75.80
2019-02-02T14:06:45.258Z,75.50
2019-02-02T14:09:16.468Z,75.10
2019-02-02T14:11:47.081Z,75.30
2019-02-02T14:14:17.731Z,75.50
2019-02-02T14:16:48.992Z,75.80
2019-02-02T14:19:39.027Z,75.80
2019-02-02T14:24:54.555Z,75.50
2019-02-02T14:27:27.638Z,75.80
2019-02-02T14:29:57.768Z,76.00
2019-02-02T14:32:29.642Z,76.10
2019-02-02T14:35:19.416Z,76.30
2019-02-02T14:37:50.042Z,76.10
2019-02-02T14:40:21.053Z,75.70
2019-02-02T14:42:51.747Z,75.60
2019-02-02T14:45:27.410Z,75.80
2019-02-02T14:48:15.812Z,76.00
2019-02-02T14:50:47.637Z,75.80
2019-02-02T14:53:18.189Z,75.60
2019-02-02T14:56:09.219Z,75.40
2019-02-02T14:58:52.100Z,75.60
2019-02-02T15:01:23.101Z,75.80
2019-02-02T15:04:13.011Z,76.30
2019-02-02T15:06:43.803Z,76.40
2019-02-02T15:09:14.345Z,76.60
2019-02-02T15:11:45.640Z,76.70
2019-02-02T15:14:35.386Z,76.70
2019-02-02T15:24:10.424Z,76.50
2019-02-02T15:26:42.015Z,76.50
2019-02-02T15:29:12.548Z,76.40
2019-02-02T15:32:06.517Z,76.30
2019-02-02T15:34:38.228Z,76.20
2019-02-02T15:37:28.132Z,76.30
2019-02-02T15:40:17.586Z,76.30
2019-02-02T15:42:48.079Z,76.30
2019-02-02T15:45:37.720Z,76.30
2019-02-02T15:48:08.531Z,77.00
2019-02-02T15:50:57.899Z,76.10
2019-02-02T15:53:48.862Z,76.10
2019-02-02T16:05:06.386Z,76.30
2019-02-02T16:07:37.879Z,76.20
2019-02-02T16:10:15.225Z,76.30
2019-02-02T16:12:58.905Z,76.10
2019-02-02T16:15:30.124Z,76.50
2019-02-02T16:18:21.127Z,76.50
2019-02-02T16:20:52.447Z,76.60
2019-02-02T16:23:23.931Z,76.50
2019-02-02T16:26:14.955Z,76.60
2019-02-02T16:28:46.168Z,76.70
2019-02-02T16:31:16.729Z,76.60
2019-02-02T16:33:48.173Z,76.80
2019-02-02T16:39:16.288Z,76.80
2019-02-02T16:41:48.109Z,76.90
2019-02-02T16:47:33.519Z,76.70
2019-02-02T16:50:16.049Z,76.70
2019-02-02T16:53:06.391Z,76.70
2019-02-02T16:55:41.356Z,76.70
2019-02-02T16:58:31.645Z,76.60
2019-02-02T17:01:06.917Z,76.50
2019-02-02T17:03:40.450Z,76.60
2019-02-02T17:06:30.635Z,76.60
2019-02-02T17:09:01.485Z,76.60
2019-02-02T17:11:51.386Z,76.70
2019-02-02T17:17:06.819Z,76.60
2019-02-02T17:19:58.271Z,76.70
2019-02-02T17:22:29.514Z,76.60
2019-02-02T17:25:22.436Z,76.50
2019-02-02T17:27:51.839Z,76.70
2019-02-02T17:30:42.138Z,76.70
2019-02-02T17:33:16.631Z,76.70
2019-02-02T17:36:07.082Z,76.90
2019-02-02T17:38:37.890Z,76.80
2019-02-02T17:41:28.729Z,76.90
2019-02-02T17:43:59.638Z,76.90
2019-02-02T17:46:31.098Z,77.00
2019-02-02T17:49:39.841Z,77.00
2019-02-02T17:52:29.059Z,76.90
2019-02-02T17:55:14.251Z,77.00
2019-02-02T17:57:45.170Z,77.20
2019-02-02T18:00:57.488Z,77.30
2019-02-02T18:03:27.886Z,77.40
2019-02-02T18:09:20.305Z,77.50
2019-02-02T18:11:50.982Z,77.60
2019-02-02T18:14:41.429Z,77.70
2019-02-02T18:17:12.393Z,77.70
2019-02-02T18:20:03.575Z,77.80
2019-02-02T18:22:45.858Z,77.70
2019-02-02T18:25:16.795Z,77.70
2019-02-02T18:28:06.646Z,77.70
2019-02-02T18:30:46.272Z,77.70
2019-02-02T18:33:16.523Z,77.60
2019-02-02T18:35:47.334Z,77.60
2019-02-02T18:38:37.102Z,77.70
2019-02-02T18:41:08.057Z,77.70
2019-02-02T18:43:58.001Z,77.70
2019-02-02T18:52:07.253Z,78.00
2019-02-02T18:54:57.808Z,78.00
2019-02-02T18:57:42.005Z,77.90
2019-02-02T19:00:15.855Z,78.10
2019-02-02T19:02:46.789Z,78.20
2019-02-02T19:05:37.689Z,78.30
2019-02-02T19:08:08.215Z,78.30
2019-02-02T19:10:59.332Z,78.30
2019-02-02T19:13:48.439Z,78.30
2019-02-02T19:19:36.891Z,78.50
2019-02-02T19:22:19.489Z,78.50
2019-02-02T19:24:51.238Z,78.70
2019-02-02T19:27:24.619Z,78.80
2019-02-02T19:30:16.516Z,78.90
2019-02-02T19:32:47.184Z,78.90
2019-02-02T19:35:36.907Z,78.90
2019-02-02T19:38:26.219Z,78.90
2019-02-02T19:41:08.033Z,78.90
2019-02-02T19:43:39.165Z,78.90
2019-02-02T19:49:13.314Z,78.90
2019-02-02T19:51:54.554Z,79.00
2019-02-02T20:00:43.954Z,79.00
2019-02-02T20:03:25.814Z,79.10
2019-02-02T20:12:40.798Z,78.80
2019-02-02T20:15:25.996Z,78.80
2019-02-02T20:18:10.670Z,78.90
2019-02-02T20:20:57.839Z,78.90
2019-02-02T20:23:40.917Z,79.00
2019-02-02T20:26:22.729Z,79.10
2019-02-02T20:29:05.888Z,78.50
2019-02-02T20:31:47.306Z,79.20
2019-02-02T20:34:19.282Z,79.20
2019-02-02T20:36:51.351Z,79.20
2019-02-02T20:39:41.286Z,79.20
2019-02-02T20:42:12.594Z,79.30
2019-02-02T20:45:01.743Z,79.30
2019-02-02T20:47:33.346Z,79.30
2019-02-02T20:50:26.382Z,79.20
2019-02-02T20:56:13.790Z,79.00
2019-02-02T20:58:45.122Z,79.00
2019-02-02T21:08:38.938Z,78.90
2019-02-02T21:11:09.758Z,78.90
2019-02-02T21:16:39.058Z,79.00
2019-02-02T21:22:14.136Z,78.90
2019-02-02T21:24:59.692Z,78.90
2019-02-02T21:27:42.284Z,78.90
2019-02-02T21:33:23.975Z,78.90
2019-02-02T21:36:16.215Z,78.80
2019-02-02T21:39:00.251Z,78.80
2019-02-02T21:44:43.303Z,78.70
2019-02-02T21:47:21.082Z,78.90
2019-02-02T21:50:03.045Z,78.70
2019-02-02T21:52:34.145Z,78.70
2019-02-02T21:55:24.385Z,78.60
2019-02-02T21:57:55.492Z,78.40
2019-02-02T22:03:18.228Z,78.50
2019-02-02T22:05:50.078Z,78.40
2019-02-02T22:08:39.939Z,78.40
2019-02-02T22:11:32.057Z,78.40
2019-02-02T22:19:46.299Z,79.40
2019-02-02T22:22:31.473Z,78.70
2019-02-02T22:25:15.612Z,78.80
2019-02-02T22:28:01.314Z,78.90
2019-02-02T22:30:54.627Z,78.90
2019-02-02T22:33:40.435Z,78.90
2019-02-02T22:36:27.857Z,79.00
2019-02-02T22:39:13.376Z,79.10
2019-02-02T22:41:58.699Z,78.90
2019-02-02T22:44:41.295Z,79.50
2019-02-02T22:47:26.237Z,78.70
2019-02-02T22:50:11.481Z,78.60
2019-02-02T22:53:01.270Z,78.50
2019-02-02T22:55:37.813Z,78.40
2019-02-02T23:04:56.640Z,78.20
2019-02-02T23:08:05.935Z,78.40
2019-02-02T23:14:33.147Z,78.60
2019-02-02T23:25:42.043Z,78.50
2019-02-02T23:28:25.017Z,78.40
2019-02-02T23:31:07.281Z,78.40
2019-02-02T23:33:53.725Z,78.50
2019-02-02T23:39:30.017Z,78.60
2019-02-02T23:42:20.924Z,78.40
2019-02-02T23:47:36.739Z,78.40
2019-02-02T23:50:26.937Z,78.50
2019-02-02T23:53:08.644Z,79.00
2019-02-02T23:55:54.668Z,78.30
2019-02-02T23:58:36.026Z,78.40
